sensor_id;sensor_type;location;lat;lon;timestamp;P1;durP1;ratioP1;P2;durP2;ratioP2
76292;SDS011;67256;51.154;4.164;2023-06-14T00:00:58;10.30;;;6.03;;
76292;SDS011;67256;51.154;4.164;2023-06-14T00:03:25;10.15;;;6.38;;
76292;SDS011;67256;51.154;4.164;2023-06-14T00:05:51;9.32;;;6.30;;
76292;SDS011;67256;51.154;4.164;2023-06-14T00:08:16;13.63;;;6.40;;
76292;SDS011;67256;51.154;4.164;2023-06-14T00:10:44;11.23;;;6.22;;
76292;SDS011;67256;51.154;4.164;2023-06-14T00:13:10;12.73;;;6.18;;
76292;SDS011;67256;51.154;4.164;2023-06-14T00:15:36;9.10;;;6.78;;
76292;SDS011;67256;51.154;4.164;2023-06-14T00:18:02;7.47;;;6.28;;
76292;SDS011;67256;51.154;4.164;2023-06-14T00:20:30;12.00;;;6.97;;
76292;SDS011;67256;51.154;4.164;2023-06-14T00:22:58;10.52;;;6.28;;
76292;SDS011;67256;51.154;4.164;2023-06-14T00:27:53;7.93;;;6.13;;
76292;SDS011;67256;51.154;4.164;2023-06-14T00:30:20;10.88;;;5.80;;
76292;SDS011;67256;51.154;4.164;2023-06-14T00:32:46;13.60;;;6.32;;
76292;SDS011;67256;51.154;4.164;2023-06-14T00:35:13;13.48;;;6.53;;
76292;SDS011;67256;51.154;4.164;2023-06-14T00:37:39;10.00;;;6.72;;
76292;SDS011;67256;51.154;4.164;2023-06-14T00:40:05;11.82;;;6.22;;
76292;SDS011;67256;51.154;4.164;2023-06-14T00:42:31;10.07;;;5.95;;
76292;SDS011;67256;51.154;4.164;2023-06-14T00:44:57;8.68;;;5.80;;
76292;SDS011;67256;51.154;4.164;2023-06-14T00:47:23;14.73;;;6.38;;
76292;SDS011;67256;51.154;4.164;2023-06-14T00:49:52;13.85;;;6.90;;
76292;SDS011;67256;51.154;4.164;2023-06-14T00:52:19;9.35;;;5.93;;
76292;SDS011;67256;51.154;4.164;2023-06-14T00:54:45;9.85;;;5.70;;
76292;SDS011;67256;51.154;4.164;2023-06-14T00:57:11;9.85;;;6.20;;
76292;SDS011;67256;51.154;4.164;2023-06-14T00:59:44;8.95;;;5.68;;
76292;SDS011;67256;51.154;4.164;2023-06-14T01:02:12;10.15;;;5.85;;
76292;SDS011;67256;51.154;4.164;2023-06-14T01:04:40;9.77;;;6.00;;
76292;SDS011;67256;51.154;4.164;2023-06-14T01:15:36;11.15;;;5.80;;
76292;SDS011;67256;51.154;4.164;2023-06-14T01:18:03;12.57;;;6.20;;
76292;SDS011;67256;51.154;4.164;2023-06-14T01:20:31;10.15;;;5.78;;
76292;SDS011;67256;51.154;4.164;2023-06-14T01:22:58;10.80;;;5.78;;
76292;SDS011;67256;51.154;4.164;2023-06-14T01:25:24;10.05;;;6.05;;
76292;SDS011;67256;51.154;4.164;2023-06-14T01:28:02;9.35;;;5.47;;
76292;SDS011;67256;51.154;4.164;2023-06-14T01:30:35;8.32;;;5.97;;
76292;SDS011;67256;51.154;4.164;2023-06-14T01:33:20;14.23;;;8.13;;
76292;SDS011;67256;51.154;4.164;2023-06-14T01:35:50;9.13;;;6.50;;
76292;SDS011;67256;51.154;4.164;2023-06-14T01:38:20;7.40;;;5.93;;
76292;SDS011;67256;51.154;4.164;2023-06-14T01:40:47;8.85;;;5.55;;
76292;SDS011;67256;51.154;4.164;2023-06-14T01:43:16;10.15;;;5.88;;
76292;SDS011;67256;51.154;4.164;2023-06-14T01:45:44;11.43;;;5.63;;
76292;SDS011;67256;51.154;4.164;2023-06-14T01:48:12;8.57;;;5.18;;
76292;SDS011;67256;51.154;4.164;2023-06-14T01:50:38;11.27;;;5.95;;
76292;SDS011;67256;51.154;4.164;2023-06-14T01:53:07;12.32;;;6.00;;
76292;SDS011;67256;51.154;4.164;2023-06-14T01:55:34;9.43;;;5.13;;
76292;SDS011;67256;51.154;4.164;2023-06-14T01:58:02;8.82;;;5.43;;
76292;SDS011;67256;51.154;4.164;2023-06-14T02:00:29;11.32;;;5.25;;
76292;SDS011;67256;51.154;4.164;2023-06-14T02:02:54;8.88;;;5.43;;
76292;SDS011;67256;51.154;4.164;2023-06-14T02:05:20;10.93;;;5.45;;
76292;SDS011;67256;51.154;4.164;2023-06-14T02:07:46;8.57;;;5.90;;
76292;SDS011;67256;51.154;4.164;2023-06-14T02:10:13;9.77;;;5.22;;
76292;SDS011;67256;51.154;4.164;2023-06-14T02:12:39;10.07;;;5.53;;
76292;SDS011;67256;51.154;4.164;2023-06-14T02:15:05;7.78;;;4.80;;
76292;SDS011;67256;51.154;4.164;2023-06-14T02:17:32;12.55;;;5.45;;
76292;SDS011;67256;51.154;4.164;2023-06-14T02:19:58;12.10;;;5.55;;
76292;SDS011;67256;51.154;4.164;2023-06-14T02:22:24;7.82;;;5.10;;
76292;SDS011;67256;51.154;4.164;2023-06-14T02:24:50;7.85;;;4.97;;
76292;SDS011;67256;51.154;4.164;2023-06-14T02:27:16;11.95;;;5.55;;
76292;SDS011;67256;51.154;4.164;2023-06-14T02:29:43;11.88;;;5.28;;
76292;SDS011;67256;51.154;4.164;2023-06-14T02:32:09;9.35;;;5.65;;
76292;SDS011;67256;51.154;4.164;2023-06-14T02:34:34;8.40;;;4.70;;
76292;SDS011;67256;51.154;4.164;2023-06-14T02:37:01;8.20;;;5.15;;
76292;SDS011;67256;51.154;4.164;2023-06-14T02:41:55;10.82;;;5.05;;
76292;SDS011;67256;51.154;4.164;2023-06-14T02:44:25;11.63;;;4.80;;
76292;SDS011;67256;51.154;4.164;2023-06-14T02:46:54;8.13;;;5.32;;
76292;SDS011;67256;51.154;4.164;2023-06-14T02:49:21;10.68;;;4.95;;
76292;SDS011;67256;51.154;4.164;2023-06-14T02:51:47;10.05;;;4.70;;
76292;SDS011;67256;51.154;4.164;2023-06-14T02:54:14;8.20;;;4.82;;
76292;SDS011;67256;51.154;4.164;2023-06-14T02:56:40;11.68;;;5.53;;
76292;SDS011;67256;51.154;4.164;2023-06-14T02:59:06;9.68;;;5.05;;
76292;SDS011;67256;51.154;4.164;2023-06-14T03:01:32;7.50;;;4.93;;
76292;SDS011;67256;51.154;4.164;2023-06-14T03:04:06;9.00;;;4.80;;
76292;SDS011;67256;51.154;4.164;2023-06-14T03:06:35;7.47;;;4.93;;
76292;SDS011;67256;51.154;4.164;2023-06-14T03:09:01;11.35;;;4.78;;
76292;SDS011;67256;51.154;4.164;2023-06-14T03:11:31;10.07;;;5.00;;
76292;SDS011;67256;51.154;4.164;2023-06-14T03:13:57;13.90;;;5.18;;
76292;SDS011;67256;51.154;4.164;2023-06-14T03:16:23;6.15;;;4.10;;
76292;SDS011;67256;51.154;4.164;2023-06-14T03:18:52;6.45;;;4.55;;
76292;SDS011;67256;51.154;4.164;2023-06-14T03:21:18;8.30;;;4.68;;
76292;SDS011;67256;51.154;4.164;2023-06-14T03:23:48;6.88;;;4.25;;
76292;SDS011;67256;51.154;4.164;2023-06-14T03:26:14;8.88;;;5.03;;
76292;SDS011;67256;51.154;4.164;2023-06-14T03:28:45;12.90;;;4.50;;
76292;SDS011;67256;51.154;4.164;2023-06-14T03:31:14;10.07;;;4.80;;
76292;SDS011;67256;51.154;4.164;2023-06-14T03:33:41;7.93;;;4.20;;
76292;SDS011;67256;51.154;4.164;2023-06-14T03:36:07;6.25;;;4.85;;
76292;SDS011;67256;51.154;4.164;2023-06-14T03:38:33;10.38;;;4.43;;
76292;SDS011;67256;51.154;4.164;2023-06-14T03:41:00;7.22;;;4.72;;
76292;SDS011;67256;51.154;4.164;2023-06-14T03:43:26;7.25;;;4.03;;
76292;SDS011;67256;51.154;4.164;2023-06-14T03:45:52;9.07;;;4.60;;
76292;SDS011;67256;51.154;4.164;2023-06-14T03:48:18;10.57;;;4.25;;
76292;SDS011;67256;51.154;4.164;2023-06-14T03:50:44;6.88;;;4.60;;
76292;SDS011;67256;51.154;4.164;2023-06-14T03:53:09;13.15;;;4.47;;
76292;SDS011;67256;51.154;4.164;2023-06-14T03:55:35;5.40;;;4.22;;
76292;SDS011;67256;51.154;4.164;2023-06-14T03:58:03;8.38;;;4.63;;
76292;SDS011;67256;51.154;4.164;2023-06-14T04:00:28;9.88;;;4.30;;
76292;SDS011;67256;51.154;4.164;2023-06-14T04:02:55;7.45;;;4.38;;
76292;SDS011;67256;51.154;4.164;2023-06-14T04:05:20;8.40;;;4.75;;
76292;SDS011;67256;51.154;4.164;2023-06-14T04:07:46;6.75;;;4.53;;
76292;SDS011;67256;51.154;4.164;2023-06-14T04:10:13;6.43;;;4.55;;
76292;SDS011;67256;51.154;4.164;2023-06-14T04:12:41;8.45;;;4.80;;
76292;SDS011;67256;51.154;4.164;2023-06-14T04:15:07;10.35;;;4.43;;
76292;SDS011;67256;51.154;4.164;2023-06-14T04:17:34;11.20;;;4.70;;
76292;SDS011;67256;51.154;4.164;2023-06-14T04:20:00;5.85;;;4.25;;
76292;SDS011;67256;51.154;4.164;2023-06-14T04:22:29;9.55;;;4.75;;
76292;SDS011;67256;51.154;4.164;2023-06-14T04:24:55;11.57;;;4.68;;
76292;SDS011;67256;51.154;4.164;2023-06-14T04:27:25;10.10;;;4.90;;
76292;SDS011;67256;51.154;4.164;2023-06-14T04:29:52;13.65;;;4.68;;
76292;SDS011;67256;51.154;4.164;2023-06-14T04:32:25;8.43;;;4.22;;
76292;SDS011;67256;51.154;4.164;2023-06-14T04:34:55;12.02;;;5.18;;
76292;SDS011;67256;51.154;4.164;2023-06-14T04:37:21;5.60;;;3.97;;
76292;SDS011;67256;51.154;4.164;2023-06-14T04:39:50;7.97;;;4.38;;
76292;SDS011;67256;51.154;4.164;2023-06-14T04:42:16;8.80;;;5.35;;
76292;SDS011;67256;51.154;4.164;2023-06-14T04:44:45;11.63;;;4.57;;
76292;SDS011;67256;51.154;4.164;2023-06-14T04:47:13;10.45;;;4.43;;
76292;SDS011;67256;51.154;4.164;2023-06-14T04:49:41;10.30;;;5.65;;
76292;SDS011;67256;51.154;4.164;2023-06-14T04:52:06;12.10;;;5.18;;
76292;SDS011;67256;51.154;4.164;2023-06-14T04:54:35;10.30;;;4.83;;
76292;SDS011;67256;51.154;4.164;2023-06-14T04:57:07;10.10;;;4.85;;
76292;SDS011;67256;51.154;4.164;2023-06-14T04:59:32;12.25;;;5.40;;
76292;SDS011;67256;51.154;4.164;2023-06-14T05:02:00;9.73;;;5.28;;
76292;SDS011;67256;51.154;4.164;2023-06-14T05:04:26;10.68;;;5.35;;
76292;SDS011;67256;51.154;4.164;2023-06-14T05:06:53;9.25;;;4.45;;
76292;SDS011;67256;51.154;4.164;2023-06-14T05:11:48;6.95;;;4.65;;
76292;SDS011;67256;51.154;4.164;2023-06-14T05:14:15;15.63;;;4.65;;
76292;SDS011;67256;51.154;4.164;2023-06-14T05:16:42;12.48;;;4.95;;
76292;SDS011;67256;51.154;4.164;2023-06-14T05:19:08;11.55;;;5.45;;
76292;SDS011;67256;51.154;4.164;2023-06-14T05:21:35;16.65;;;5.82;;
76292;SDS011;67256;51.154;4.164;2023-06-14T05:24:02;13.13;;;5.22;;
76292;SDS011;67256;51.154;4.164;2023-06-14T05:26:28;9.55;;;5.22;;
76292;SDS011;67256;51.154;4.164;2023-06-14T05:28:55;11.43;;;5.57;;
76292;SDS011;67256;51.154;4.164;2023-06-14T05:31:26;12.70;;;5.28;;
76292;SDS011;67256;51.154;4.164;2023-06-14T05:33:53;18.25;;;6.40;;
76292;SDS011;67256;51.154;4.164;2023-06-14T05:36:20;18.85;;;5.78;;
76292;SDS011;67256;51.154;4.164;2023-06-14T05:38:49;14.63;;;5.68;;
76292;SDS011;67256;51.154;4.164;2023-06-14T05:41:15;13.02;;;6.03;;
76292;SDS011;67256;51.154;4.164;2023-06-14T05:43:41;10.35;;;5.75;;
76292;SDS011;67256;51.154;4.164;2023-06-14T05:46:10;10.38;;;6.20;;
76292;SDS011;67256;51.154;4.164;2023-06-14T05:48:36;15.50;;;6.32;;
76292;SDS011;67256;51.154;4.164;2023-06-14T05:51:02;11.93;;;6.53;;
76292;SDS011;67256;51.154;4.164;2023-06-14T05:53:28;10.95;;;5.85;;
76292;SDS011;67256;51.154;4.164;2023-06-14T05:55:54;15.65;;;6.30;;
76292;SDS011;67256;51.154;4.164;2023-06-14T05:58:20;12.68;;;5.65;;
76292;SDS011;67256;51.154;4.164;2023-06-14T06:00:46;11.30;;;5.78;;
76292;SDS011;67256;51.154;4.164;2023-06-14T06:03:12;14.75;;;6.78;;
76292;SDS011;67256;51.154;4.164;2023-06-14T06:05:38;17.40;;;6.95;;
76292;SDS011;67256;51.154;4.164;2023-06-14T06:08:04;9.98;;;5.57;;
76292;SDS011;67256;51.154;4.164;2023-06-14T06:10:30;18.90;;;6.63;;
76292;SDS011;67256;51.154;4.164;2023-06-14T06:12:57;9.70;;;6.82;;
76292;SDS011;67256;51.154;4.164;2023-06-14T06:15:23;19.98;;;7.45;;
76292;SDS011;67256;51.154;4.164;2023-06-14T06:17:49;13.85;;;6.65;;
76292;SDS011;67256;51.154;4.164;2023-06-14T06:20:16;17.38;;;7.00;;
76292;SDS011;67256;51.154;4.164;2023-06-14T06:22:42;12.93;;;6.63;;
76292;SDS011;67256;51.154;4.164;2023-06-14T06:25:08;21.08;;;6.32;;
76292;SDS011;67256;51.154;4.164;2023-06-14T06:27:34;14.88;;;7.07;;
76292;SDS011;67256;51.154;4.164;2023-06-14T06:30:02;20.48;;;7.38;;
76292;SDS011;67256;51.154;4.164;2023-06-14T06:32:28;11.85;;;6.70;;
76292;SDS011;67256;51.154;4.164;2023-06-14T06:34:54;19.38;;;6.28;;
76292;SDS011;67256;51.154;4.164;2023-06-14T06:37:20;17.17;;;6.38;;
76292;SDS011;67256;51.154;4.164;2023-06-14T06:39:45;20.27;;;6.80;;
76292;SDS011;67256;51.154;4.164;2023-06-14T06:42:12;15.43;;;6.90;;
76292;SDS011;67256;51.154;4.164;2023-06-14T06:44:38;14.45;;;6.22;;
76292;SDS011;67256;51.154;4.164;2023-06-14T06:47:04;19.23;;;6.18;;
76292;SDS011;67256;51.154;4.164;2023-06-14T06:49:30;18.25;;;7.45;;
76292;SDS011;67256;51.154;4.164;2023-06-14T06:54:28;16.65;;;6.25;;
76292;SDS011;67256;51.154;4.164;2023-06-14T06:56:54;12.45;;;6.70;;
76292;SDS011;67256;51.154;4.164;2023-06-14T06:59:21;47.72;;;8.32;;
76292;SDS011;67256;51.154;4.164;2023-06-14T07:01:46;11.00;;;5.57;;
76292;SDS011;67256;51.154;4.164;2023-06-14T07:04:12;8.30;;;5.40;;
76292;SDS011;67256;51.154;4.164;2023-06-14T07:06:39;10.00;;;6.03;;
76292;SDS011;67256;51.154;4.164;2023-06-14T07:09:04;22.73;;;6.82;;
76292;SDS011;67256;51.154;4.164;2023-06-14T07:11:33;11.95;;;6.53;;
76292;SDS011;67256;51.154;4.164;2023-06-14T07:13:59;13.73;;;6.75;;
76292;SDS011;67256;51.154;4.164;2023-06-14T07:16:24;12.98;;;7.25;;
76292;SDS011;67256;51.154;4.164;2023-06-14T07:18:50;17.65;;;6.68;;
76292;SDS011;67256;51.154;4.164;2023-06-14T07:21:17;13.15;;;6.93;;
76292;SDS011;67256;51.154;4.164;2023-06-14T07:23:43;19.98;;;7.07;;
76292;SDS011;67256;51.154;4.164;2023-06-14T07:26:09;19.10;;;8.10;;
76292;SDS011;67256;51.154;4.164;2023-06-14T07:28:34;17.08;;;7.95;;
76292;SDS011;67256;51.154;4.164;2023-06-14T07:31:01;17.92;;;7.15;;
76292;SDS011;67256;51.154;4.164;2023-06-14T07:33:28;16.73;;;6.70;;
76292;SDS011;67256;51.154;4.164;2023-06-14T07:35:53;13.57;;;6.28;;
76292;SDS011;67256;51.154;4.164;2023-06-14T07:38:20;13.90;;;6.35;;
76292;SDS011;67256;51.154;4.164;2023-06-14T07:40:45;19.60;;;6.88;;
76292;SDS011;67256;51.154;4.164;2023-06-14T07:43:11;19.02;;;6.85;;
76292;SDS011;67256;51.154;4.164;2023-06-14T07:45:37;17.52;;;7.13;;
76292;SDS011;67256;51.154;4.164;2023-06-14T07:48:03;17.73;;;6.70;;
76292;SDS011;67256;51.154;4.164;2023-06-14T07:50:29;17.27;;;6.63;;
76292;SDS011;67256;51.154;4.164;2023-06-14T07:52:56;15.13;;;6.35;;
76292;SDS011;67256;51.154;4.164;2023-06-14T07:55:22;15.07;;;6.28;;
76292;SDS011;67256;51.154;4.164;2023-06-14T07:57:47;16.77;;;6.78;;
76292;SDS011;67256;51.154;4.164;2023-06-14T08:00:13;16.73;;;6.00;;
76292;SDS011;67256;51.154;4.164;2023-06-14T08:02:43;14.52;;;5.60;;
76292;SDS011;67256;51.154;4.164;2023-06-14T08:05:10;13.98;;;6.00;;
76292;SDS011;67256;51.154;4.164;2023-06-14T08:07:36;9.23;;;5.93;;
76292;SDS011;67256;51.154;4.164;2023-06-14T08:10:03;14.75;;;5.82;;
76292;SDS011;67256;51.154;4.164;2023-06-14T08:12:30;14.15;;;6.05;;
76292;SDS011;67256;51.154;4.164;2023-06-14T08:14:56;15.45;;;5.93;;
76292;SDS011;67256;51.154;4.164;2023-06-14T08:17:21;18.13;;;5.38;;
76292;SDS011;67256;51.154;4.164;2023-06-14T08:19:47;14.40;;;6.15;;
76292;SDS011;67256;51.154;4.164;2023-06-14T08:22:13;15.23;;;5.72;;
76292;SDS011;67256;51.154;4.164;2023-06-14T08:24:39;17.67;;;6.05;;
76292;SDS011;67256;51.154;4.164;2023-06-14T08:27:06;14.85;;;5.90;;
76292;SDS011;67256;51.154;4.164;2023-06-14T08:29:31;22.02;;;6.13;;
76292;SDS011;67256;51.154;4.164;2023-06-14T08:31:57;17.58;;;6.10;;
76292;SDS011;67256;51.154;4.164;2023-06-14T08:34:23;14.77;;;7.55;;
76292;SDS011;67256;51.154;4.164;2023-06-14T08:36:50;10.43;;;6.03;;
76292;SDS011;67256;51.154;4.164;2023-06-14T08:39:16;9.70;;;6.63;;
76292;SDS011;67256;51.154;4.164;2023-06-14T08:41:42;20.98;;;6.13;;
76292;SDS011;67256;51.154;4.164;2023-06-14T08:44:11;18.42;;;6.93;;
76292;SDS011;67256;51.154;4.164;2023-06-14T08:46:37;23.92;;;7.30;;
76292;SDS011;67256;51.154;4.164;2023-06-14T08:49:04;12.55;;;6.53;;
76292;SDS011;67256;51.154;4.164;2023-06-14T08:51:31;15.90;;;7.50;;
76292;SDS011;67256;51.154;4.164;2023-06-14T08:54:02;60.30;;;9.00;;
76292;SDS011;67256;51.154;4.164;2023-06-14T08:56:29;39.65;;;7.78;;
76292;SDS011;67256;51.154;4.164;2023-06-14T08:58:56;20.63;;;7.88;;
76292;SDS011;67256;51.154;4.164;2023-06-14T09:01:30;17.25;;;8.45;;
76292;SDS011;67256;51.154;4.164;2023-06-14T09:03:59;33.67;;;7.15;;
76292;SDS011;67256;51.154;4.164;2023-06-14T09:06:27;34.28;;;6.78;;
76292;SDS011;67256;51.154;4.164;2023-06-14T09:08:54;22.33;;;6.63;;
76292;SDS011;67256;51.154;4.164;2023-06-14T09:13:49;10.98;;;5.50;;
76292;SDS011;67256;51.154;4.164;2023-06-14T09:16:15;16.42;;;5.93;;
76292;SDS011;67256;51.154;4.164;2023-06-14T09:18:43;14.70;;;6.05;;
76292;SDS011;67256;51.154;4.164;2023-06-14T09:21:12;13.70;;;5.93;;
76292;SDS011;67256;51.154;4.164;2023-06-14T09:23:40;13.88;;;5.70;;
76292;SDS011;67256;51.154;4.164;2023-06-14T09:26:10;10.35;;;5.40;;
76292;SDS011;67256;51.154;4.164;2023-06-14T09:28:43;17.00;;;5.60;;
76292;SDS011;67256;51.154;4.164;2023-06-14T09:31:14;19.48;;;7.35;;
76292;SDS011;67256;51.154;4.164;2023-06-14T09:33:41;12.82;;;6.00;;
76292;SDS011;67256;51.154;4.164;2023-06-14T09:36:17;9.95;;;5.75;;
76292;SDS011;67256;51.154;4.164;2023-06-14T09:39:00;9.27;;;5.18;;
76292;SDS011;67256;51.154;4.164;2023-06-14T09:41:36;16.08;;;5.57;;
76292;SDS011;67256;51.154;4.164;2023-06-14T09:44:04;13.02;;;7.60;;
76292;SDS011;67256;51.154;4.164;2023-06-14T09:46:32;22.90;;;6.85;;
76292;SDS011;67256;51.154;4.164;2023-06-14T09:48:58;12.48;;;5.72;;
76292;SDS011;67256;51.154;4.164;2023-06-14T09:51:25;10.13;;;5.55;;
76292;SDS011;67256;51.154;4.164;2023-06-14T09:53:52;13.50;;;5.53;;
76292;SDS011;67256;51.154;4.164;2023-06-14T09:56:25;24.85;;;5.32;;
76292;SDS011;67256;51.154;4.164;2023-06-14T09:58:55;16.63;;;5.60;;
76292;SDS011;67256;51.154;4.164;2023-06-14T10:01:22;18.58;;;5.15;;
76292;SDS011;67256;51.154;4.164;2023-06-14T10:04:13;16.48;;;5.65;;
76292;SDS011;67256;51.154;4.164;2023-06-14T10:06:40;23.85;;;6.53;;
76292;SDS011;67256;51.154;4.164;2023-06-14T10:09:10;16.63;;;5.82;;
76292;SDS011;67256;51.154;4.164;2023-06-14T10:11:37;18.77;;;5.00;;
76292;SDS011;67256;51.154;4.164;2023-06-14T10:14:09;8.48;;;5.15;;
76292;SDS011;67256;51.154;4.164;2023-06-14T10:19:18;12.73;;;4.63;;
76292;SDS011;67256;51.154;4.164;2023-06-14T10:22:04;11.35;;;5.10;;
76292;SDS011;67256;51.154;4.164;2023-06-14T10:24:41;17.00;;;5.00;;
76292;SDS011;67256;51.154;4.164;2023-06-14T10:27:08;12.02;;;5.25;;
76292;SDS011;67256;51.154;4.164;2023-06-14T10:32:18;9.73;;;4.22;;
76292;SDS011;67256;51.154;4.164;2023-06-14T10:34:44;14.73;;;4.65;;
76292;SDS011;67256;51.154;4.164;2023-06-14T10:37:11;17.52;;;4.88;;
76292;SDS011;67256;51.154;4.164;2023-06-14T10:39:41;21.83;;;5.28;;
76292;SDS011;67256;51.154;4.164;2023-06-14T10:42:10;10.43;;;4.20;;
76292;SDS011;67256;51.154;4.164;2023-06-14T10:47:30;29.27;;;5.80;;
76292;SDS011;67256;51.154;4.164;2023-06-14T10:49:57;13.65;;;5.13;;
76292;SDS011;67256;51.154;4.164;2023-06-14T10:52:35;38.50;;;5.53;;
76292;SDS011;67256;51.154;4.164;2023-06-14T10:55:05;24.23;;;5.10;;
76292;SDS011;67256;51.154;4.164;2023-06-14T10:57:34;12.18;;;4.82;;
76292;SDS011;67256;51.154;4.164;2023-06-14T11:00:02;47.30;;;6.93;;
76292;SDS011;67256;51.154;4.164;2023-06-14T11:05:28;14.07;;;4.18;;
76292;SDS011;67256;51.154;4.164;2023-06-14T11:10:43;18.05;;;4.30;;
76292;SDS011;67256;51.154;4.164;2023-06-14T11:13:12;23.90;;;4.03;;
76292;SDS011;67256;51.154;4.164;2023-06-14T11:15:44;7.15;;;3.80;;
76292;SDS011;67256;51.154;4.164;2023-06-14T11:18:12;6.47;;;3.75;;
76292;SDS011;67256;51.154;4.164;2023-06-14T11:20:39;6.47;;;3.78;;
76292;SDS011;67256;51.154;4.164;2023-06-14T11:23:05;9.43;;;4.45;;
76292;SDS011;67256;51.154;4.164;2023-06-14T11:25:31;7.15;;;3.70;;
76292;SDS011;67256;51.154;4.164;2023-06-14T11:27:57;10.73;;;3.63;;
76292;SDS011;67256;51.154;4.164;2023-06-14T11:30:24;10.30;;;4.35;;
76292;SDS011;67256;51.154;4.164;2023-06-14T11:32:52;12.15;;;3.80;;
76292;SDS011;67256;51.154;4.164;2023-06-14T11:35:19;19.40;;;4.35;;
76292;SDS011;67256;51.154;4.164;2023-06-14T11:40:14;16.67;;;4.95;;
76292;SDS011;67256;51.154;4.164;2023-06-14T11:42:40;9.35;;;4.22;;
76292;SDS011;67256;51.154;4.164;2023-06-14T11:45:07;6.60;;;3.80;;
76292;SDS011;67256;51.154;4.164;2023-06-14T11:47:34;15.10;;;4.35;;
76292;SDS011;67256;51.154;4.164;2023-06-14T11:50:04;9.73;;;3.95;;
76292;SDS011;67256;51.154;4.164;2023-06-14T11:52:31;7.75;;;3.63;;
76292;SDS011;67256;51.154;4.164;2023-06-14T11:54:57;9.65;;;4.13;;
76292;SDS011;67256;51.154;4.164;2023-06-14T11:57:24;11.00;;;3.80;;
76292;SDS011;67256;51.154;4.164;2023-06-14T11:59:50;9.82;;;3.92;;
76292;SDS011;67256;51.154;4.164;2023-06-14T12:02:16;8.88;;;4.13;;
76292;SDS011;67256;51.154;4.164;2023-06-14T12:04:44;8.25;;;3.53;;
76292;SDS011;67256;51.154;4.164;2023-06-14T12:07:13;9.93;;;3.90;;
76292;SDS011;67256;51.154;4.164;2023-06-14T12:12:22;10.88;;;3.88;;
76292;SDS011;67256;51.154;4.164;2023-06-14T12:14:53;11.43;;;3.40;;
76292;SDS011;67256;51.154;4.164;2023-06-14T12:17:21;10.02;;;3.28;;
76292;SDS011;67256;51.154;4.164;2023-06-14T12:19:48;9.68;;;3.88;;
76292;SDS011;67256;51.154;4.164;2023-06-14T12:22:15;12.13;;;3.90;;
76292;SDS011;67256;51.154;4.164;2023-06-14T12:24:45;13.65;;;4.00;;
76292;SDS011;67256;51.154;4.164;2023-06-14T12:29:41;6.05;;;3.40;;
76292;SDS011;67256;51.154;4.164;2023-06-14T12:32:10;9.13;;;2.92;;
76292;SDS011;67256;51.154;4.164;2023-06-14T12:34:36;54.45;;;5.13;;
76292;SDS011;67256;51.154;4.164;2023-06-14T12:37:02;7.07;;;3.92;;
76292;SDS011;67256;51.154;4.164;2023-06-14T12:39:31;7.25;;;3.90;;
76292;SDS011;67256;51.154;4.164;2023-06-14T12:41:57;12.32;;;3.40;;
76292;SDS011;67256;51.154;4.164;2023-06-14T12:44:24;9.43;;;3.67;;
76292;SDS011;67256;51.154;4.164;2023-06-14T12:46:50;9.43;;;4.15;;
76292;SDS011;67256;51.154;4.164;2023-06-14T12:49:18;14.40;;;3.78;;
76292;SDS011;67256;51.154;4.164;2023-06-14T12:51:45;16.60;;;3.50;;
76292;SDS011;67256;51.154;4.164;2023-06-14T12:54:11;12.27;;;3.88;;
76292;SDS011;67256;51.154;4.164;2023-06-14T12:56:37;12.98;;;3.72;;
76292;SDS011;67256;51.154;4.164;2023-06-14T12:59:03;8.40;;;3.28;;
76292;SDS011;67256;51.154;4.164;2023-06-14T13:01:29;9.27;;;3.30;;
76292;SDS011;67256;51.154;4.164;2023-06-14T13:03:55;11.25;;;4.53;;
76292;SDS011;67256;51.154;4.164;2023-06-14T13:06:21;16.50;;;4.55;;
76292;SDS011;67256;51.154;4.164;2023-06-14T13:08:47;10.75;;;3.25;;
76292;SDS011;67256;51.154;4.164;2023-06-14T13:11:14;16.92;;;3.35;;
76292;SDS011;67256;51.154;4.164;2023-06-14T13:13:39;9.80;;;3.03;;
76292;SDS011;67256;51.154;4.164;2023-06-14T13:16:05;5.53;;;3.10;;
76292;SDS011;67256;51.154;4.164;2023-06-14T13:18:31;12.40;;;4.05;;
76292;SDS011;67256;51.154;4.164;2023-06-14T13:20:57;12.18;;;3.45;;
76292;SDS011;67256;51.154;4.164;2023-06-14T13:23:23;8.18;;;3.65;;
76292;SDS011;67256;51.154;4.164;2023-06-14T13:25:48;9.93;;;2.75;;
76292;SDS011;67256;51.154;4.164;2023-06-14T13:28:18;6.70;;;2.85;;
76292;SDS011;67256;51.154;4.164;2023-06-14T13:30:44;5.55;;;2.63;;
76292;SDS011;67256;51.154;4.164;2023-06-14T13:33:10;10.60;;;3.03;;
76292;SDS011;67256;51.154;4.164;2023-06-14T13:35:35;8.43;;;2.53;;
76292;SDS011;67256;51.154;4.164;2023-06-14T13:38:01;5.82;;;2.25;;
76292;SDS011;67256;51.154;4.164;2023-06-14T13:40:27;9.18;;;2.38;;
76292;SDS011;67256;51.154;4.164;2023-06-14T13:42:53;9.45;;;3.40;;
76292;SDS011;67256;51.154;4.164;2023-06-14T13:45:18;10.02;;;2.50;;
76292;SDS011;67256;51.154;4.164;2023-06-14T13:47:44;7.60;;;2.30;;
76292;SDS011;67256;51.154;4.164;2023-06-14T13:50:13;5.82;;;2.25;;
76292;SDS011;67256;51.154;4.164;2023-06-14T13:52:39;8.27;;;2.50;;
76292;SDS011;67256;51.154;4.164;2023-06-14T13:55:05;7.80;;;2.30;;
76292;SDS011;67256;51.154;4.164;2023-06-14T13:57:31;5.25;;;2.13;;
76292;SDS011;67256;51.154;4.164;2023-06-14T13:59:57;6.07;;;2.17;;
76292;SDS011;67256;51.154;4.164;2023-06-14T14:02:26;10.10;;;2.00;;
76292;SDS011;67256;51.154;4.164;2023-06-14T14:04:54;5.82;;;1.92;;
76292;SDS011;67256;51.154;4.164;2023-06-14T14:07:20;12.38;;;2.40;;
76292;SDS011;67256;51.154;4.164;2023-06-14T14:09:47;6.05;;;1.88;;
76292;SDS011;67256;51.154;4.164;2023-06-14T14:12:12;10.25;;;1.52;;
76292;SDS011;67256;51.154;4.164;2023-06-14T14:14:39;4.32;;;1.73;;
76292;SDS011;67256;51.154;4.164;2023-06-14T14:17:05;4.13;;;1.50;;
76292;SDS011;67256;51.154;4.164;2023-06-14T14:19:31;3.38;;;1.48;;
76292;SDS011;67256;51.154;4.164;2023-06-14T14:21:57;4.82;;;1.90;;
76292;SDS011;67256;51.154;4.164;2023-06-14T14:24:23;6.45;;;1.65;;
76292;SDS011;67256;51.154;4.164;2023-06-14T14:26:49;2.20;;;1.50;;
76292;SDS011;67256;51.154;4.164;2023-06-14T14:31:44;5.65;;;1.42;;
76292;SDS011;67256;51.154;4.164;2023-06-14T14:34:10;3.03;;;1.48;;
76292;SDS011;67256;51.154;4.164;2023-06-14T14:36:35;2.97;;;1.50;;
76292;SDS011;67256;51.154;4.164;2023-06-14T14:39:03;3.25;;;1.40;;
76292;SDS011;67256;51.154;4.164;2023-06-14T14:41:29;1.73;;;0.90;;
76292;SDS011;67256;51.154;4.164;2023-06-14T14:43:55;2.05;;;1.13;;
76292;SDS011;67256;51.154;4.164;2023-06-14T14:46:21;4.53;;;1.48;;
76292;SDS011;67256;51.154;4.164;2023-06-14T14:48:46;13.73;;;1.70;;
76292;SDS011;67256;51.154;4.164;2023-06-14T14:51:12;4.45;;;1.58;;
76292;SDS011;67256;51.154;4.164;2023-06-14T14:53:39;6.93;;;1.52;;
76292;SDS011;67256;51.154;4.164;2023-06-14T14:56:04;5.10;;;1.45;;
76292;SDS011;67256;51.154;4.164;2023-06-14T14:58:30;8.00;;;1.85;;
76292;SDS011;67256;51.154;4.164;2023-06-14T15:00:56;5.97;;;1.65;;
76292;SDS011;67256;51.154;4.164;2023-06-14T15:03:22;1.95;;;1.30;;
76292;SDS011;67256;51.154;4.164;2023-06-14T15:05:47;3.90;;;1.63;;
76292;SDS011;67256;51.154;4.164;2023-06-14T15:08:13;4.03;;;1.73;;
76292;SDS011;67256;51.154;4.164;2023-06-14T15:10:39;5.10;;;1.90;;
76292;SDS011;67256;51.154;4.164;2023-06-14T15:13:06;9.73;;;1.83;;
76292;SDS011;67256;51.154;4.164;2023-06-14T15:15:33;3.97;;;1.50;;
76292;SDS011;67256;51.154;4.164;2023-06-14T15:17:59;6.53;;;1.70;;
76292;SDS011;67256;51.154;4.164;2023-06-14T15:20:25;4.90;;;1.60;;
76292;SDS011;67256;51.154;4.164;2023-06-14T15:22:51;5.10;;;1.75;;
76292;SDS011;67256;51.154;4.164;2023-06-14T15:25:17;3.05;;;1.58;;